Bullhead, South Dakota
Current Conditions -  °F | °C
As of 4:52 AM on Wednesday 28 Jan 2015 (Local Time) from KMBG Reporting Station
Clear Clear  
Wind Chill: 27°   Ceiling: Unl
Heat Index: 32°   Visibility: 10mi
Dew Point: 29°   Wind: 5mph
Humidity: 88%   Direction: 130°SE
Pressure: 29.69"   Gusts: NA
Location:  45.77°N, 101.08°W
Report Text: KMBG 281152Z AUTO 13004KT 10SM CLR 00/M02 A2969 RMK AO2 SLP065 T00001017 10033 21017 56010
Loading
Personal Weather Stations






























Interactive Weather Map New forecast layout! Learn more

10-Day Weather Forecast

Advertisements
Track Severe Weather on mobile